createdAt,value
2022-08-07T00:00:23.768Z,0.00
2022-08-07T00:02:51.033Z,0.00
2022-08-07T00:05:19.958Z,0.00
2022-08-07T00:07:46.288Z,0.00
2022-08-07T00:10:25.960Z,0.00
2022-08-07T00:12:59.932Z,0.00
2022-08-07T00:15:36.023Z,0.10
2022-08-07T00:18:24.345Z,0.00
2022-08-07T00:20:52.383Z,0.00
2022-08-07T00:23:21.466Z,0.00
2022-08-07T00:25:59.217Z,0.00
2022-08-07T00:28:33.582Z,0.00
2022-08-07T00:31:01.146Z,0.00
2022-08-07T00:33:32.824Z,0.00
2022-08-07T00:36:00.068Z,0.30
2022-08-07T00:38:31.317Z,0.10
2022-08-07T00:40:58.525Z,0.00
2022-08-07T00:44:00.315Z,0.08
2022-08-07T00:46:11.094Z,0.10
2022-08-07T00:48:37.341Z,0.00
2022-08-07T00:51:09.558Z,0.00
2022-08-07T00:53:38.857Z,0.00
2022-08-07T00:56:17.425Z,0.05
2022-08-07T00:58:47.407Z,0.00
2022-08-07T01:01:16.773Z,0.00
2022-08-07T01:03:55.766Z,0.00
2022-08-07T01:06:27.313Z,0.00
2022-08-07T01:08:55.736Z,0.10
2022-08-07T01:12:28.038Z,0.10
2022-08-07T01:14:11.240Z,0.05
2022-08-07T01:16:37.636Z,0.00
2022-08-07T01:19:05.026Z,0.00
2022-08-07T01:21:41.323Z,0.05
2022-08-07T01:24:08.185Z,0.13
2022-08-07T01:26:36.455Z,0.00
2022-08-07T01:29:04.368Z,0.00
2022-08-07T01:31:42.754Z,0.00
2022-08-07T01:34:14.149Z,0.00
2022-08-07T01:36:40.853Z,0.03
2022-08-07T01:39:10.030Z,0.00
2022-08-07T01:41:38.032Z,0.00
2022-08-07T01:44:05.019Z,0.10
2022-08-07T01:46:31.408Z,0.00
2022-08-07T01:48:59.981Z,0.08
2022-08-07T01:52:04.071Z,0.00
2022-08-07T01:54:32.680Z,0.00
2022-08-07T01:57:05.459Z,0.10
2022-08-07T01:59:38.952Z,0.10
2022-08-07T02:02:12.937Z,0.10
2022-08-07T02:05:04.854Z,0.00
2022-08-07T02:10:14.543Z,0.00
2022-08-07T02:12:42.271Z,0.00
2022-08-07T02:15:13.663Z,0.00
2022-08-07T02:17:41.109Z,0.00
2022-08-07T02:20:19.721Z,0.00
2022-08-07T02:22:52.961Z,0.00
2022-08-07T02:25:21.842Z,0.00
2022-08-07T02:28:08.570Z,0.00
2022-08-07T02:30:38.552Z,0.00
2022-08-07T02:33:09.202Z,0.00
2022-08-07T02:36:30.175Z,0.00
2022-08-07T02:38:28.221Z,0.00
2022-08-07T02:40:58.559Z,0.10
2022-08-07T02:43:26.290Z,0.00
2022-08-07T02:46:00.648Z,0.00
2022-08-07T02:48:28.613Z,0.00
2022-08-07T02:50:56.049Z,0.00
2022-08-07T02:53:27.416Z,0.00
2022-08-07T02:56:04.371Z,0.00
2022-08-07T02:58:33.695Z,0.00
2022-08-07T03:01:01.934Z,0.08
2022-08-07T03:03:49.361Z,0.00
2022-08-07T03:06:25.833Z,0.00
2022-08-07T03:09:00.817Z,0.00
2022-08-07T03:11:28.194Z,0.00
2022-08-07T03:13:57.441Z,0.00
2022-08-07T03:16:27.838Z,0.00
2022-08-07T03:18:54.592Z,0.00
2022-08-07T03:21:22.154Z,0.05
2022-08-07T03:24:19.444Z,0.03
2022-08-07T03:26:50.928Z,0.00
2022-08-07T03:29:20.584Z,0.20
2022-08-07T03:31:49.736Z,0.00
2022-08-07T03:34:18.499Z,0.13
2022-08-07T03:36:50.257Z,0.00
2022-08-07T03:39:17.490Z,0.10
2022-08-07T03:42:04.569Z,0.00
2022-08-07T03:44:34.337Z,0.00
2022-08-07T03:47:14.007Z,0.00
2022-08-07T03:49:52.518Z,0.00
2022-08-07T03:54:54.536Z,0.00
2022-08-07T03:59:04.806Z,0.00
2022-08-07T04:00:11.631Z,0.10
2022-08-07T04:02:41.334Z,0.00
2022-08-07T04:05:07.997Z,0.00
2022-08-07T04:07:36.273Z,0.00
2022-08-07T04:10:15.364Z,0.00
2022-08-07T04:12:45.819Z,0.00
2022-08-07T04:15:14.577Z,0.00
2022-08-07T04:18:31.190Z,0.00
2022-08-07T04:20:29.508Z,0.00
2022-08-07T04:23:01.751Z,0.08
2022-08-07T04:25:29.171Z,0.00
2022-08-07T04:28:00.275Z,0.00
2022-08-07T04:30:39.473Z,0.00
2022-08-07T04:33:15.512Z,0.00
2022-08-07T04:35:43.824Z,0.00
2022-08-07T04:38:16.748Z,0.03
2022-08-07T04:40:51.487Z,0.00
2022-08-07T04:43:20.017Z,0.00
2022-08-07T04:46:01.213Z,0.00
2022-08-07T04:48:28.367Z,0.00
2022-08-07T04:51:04.414Z,0.00
2022-08-07T04:54:01.866Z,0.28
2022-08-07T04:58:10.639Z,0.00
2022-08-07T05:00:12.728Z,0.00
2022-08-07T05:02:11.217Z,0.00
2022-08-07T05:05:53.192Z,0.00
2022-08-07T05:08:01.512Z,0.00
2022-08-07T05:10:36.845Z,0.00
2022-08-07T05:13:10.113Z,0.10
2022-08-07T05:15:54.775Z,0.00
2022-08-07T05:18:29.640Z,0.00
2022-08-07T05:21:00.622Z,0.00
2022-08-07T05:23:47.144Z,0.00
2022-08-07T05:26:23.529Z,0.00
2022-08-07T05:28:51.867Z,0.00
2022-08-07T05:31:19.840Z,0.00
2022-08-07T05:34:01.275Z,0.00
2022-08-07T05:36:35.799Z,0.00
2022-08-07T05:39:16.004Z,0.10
2022-08-07T05:42:00.578Z,0.00
2022-08-07T05:44:30.391Z,0.05
2022-08-07T05:46:57.432Z,0.00
2022-08-07T05:49:26.812Z,0.00
2022-08-07T05:52:07.095Z,0.00
2022-08-07T05:54:44.325Z,0.13
2022-08-07T05:57:20.585Z,0.00
2022-08-07T05:59:57.157Z,0.00
2022-08-07T06:02:28.726Z,0.00
2022-08-07T06:04:57.553Z,0.00
2022-08-07T06:08:29.720Z,0.00
2022-08-07T06:10:15.120Z,0.00
2022-08-07T06:12:41.843Z,0.00
2022-08-07T06:15:09.477Z,0.10
2022-08-07T06:17:42.832Z,0.10
2022-08-07T06:20:25.678Z,0.10
2022-08-07T06:23:02.153Z,0.20
2022-08-07T06:25:54.492Z,0.15
2022-08-07T06:28:27.187Z,0.13
2022-08-07T06:30:54.653Z,0.20
2022-08-07T06:33:22.726Z,0.30
2022-08-07T06:36:12.236Z,0.15
2022-08-07T06:38:36.051Z,0.45
2022-08-07T06:41:07.021Z,0.40
2022-08-07T06:43:39.209Z,0.30
2022-08-07T06:46:06.768Z,0.40
2022-08-07T06:48:38.839Z,0.40
2022-08-07T06:51:09.818Z,0.50
2022-08-07T06:55:29.403Z,0.50
2022-08-07T06:56:49.711Z,0.60
2022-08-07T07:00:15.095Z,0.60
2022-08-07T07:02:11.931Z,0.70
2022-08-07T07:04:38.564Z,0.70
2022-08-07T07:07:19.188Z,0.63
2022-08-07T07:09:56.228Z,0.70
2022-08-07T07:12:31.454Z,0.60
2022-08-07T07:15:03.493Z,0.70
2022-08-07T07:17:38.920Z,0.60
2022-08-07T07:20:08.479Z,0.60
2022-08-07T07:24:05.330Z,0.60
2022-08-07T07:26:35.091Z,0.60
2022-08-07T07:28:42.473Z,0.70
2022-08-07T07:31:30.481Z,0.60
2022-08-07T07:34:08.137Z,0.60
2022-08-07T07:36:36.024Z,0.70
2022-08-07T07:39:07.290Z,0.60
2022-08-07T07:42:02.097Z,0.50
2022-08-07T07:44:26.120Z,0.50
2022-08-07T07:46:56.152Z,0.50
2022-08-07T07:50:34.013Z,0.40
2022-08-07T07:52:13.166Z,0.30
2022-08-07T07:54:50.896Z,0.35
2022-08-07T07:57:21.048Z,0.35
2022-08-07T08:00:09.294Z,0.32
2022-08-07T08:02:37.791Z,0.20
2022-08-07T08:05:24.191Z,0.25
2022-08-07T08:08:36.134Z,0.10
2022-08-07T08:10:57.713Z,0.30
2022-08-07T08:13:26.016Z,0.20
2022-08-07T08:16:03.419Z,0.17
2022-08-07T08:18:31.089Z,0.10
2022-08-07T08:21:00.120Z,0.20
2022-08-07T08:23:47.567Z,0.20
2022-08-07T08:26:34.307Z,0.10
2022-08-07T08:29:03.259Z,0.20
2022-08-07T08:32:17.042Z,0.20
2022-08-07T08:34:26.964Z,0.20
2022-08-07T08:36:57.958Z,0.40
2022-08-07T08:39:25.396Z,0.20
2022-08-07T08:42:10.794Z,0.10
2022-08-07T08:44:44.921Z,0.10
2022-08-07T08:47:31.058Z,0.10
2022-08-07T08:50:35.387Z,0.20
2022-08-07T08:53:12.080Z,0.10
2022-08-07T08:55:53.478Z,0.30
2022-08-07T08:58:29.975Z,0.10
2022-08-07T09:01:00.922Z,0.10
2022-08-07T09:03:49.820Z,0.10
2022-08-07T09:06:47.805Z,0.08
2022-08-07T09:09:23.596Z,0.10
2022-08-07T09:14:36.451Z,0.10
2022-08-07T09:17:13.980Z,0.20
2022-08-07T09:19:56.448Z,0.10
2022-08-07T09:24:31.147Z,0.15
2022-08-07T09:25:21.571Z,0.10
2022-08-07T09:28:00.459Z,0.13
2022-08-07T09:30:34.876Z,0.20
2022-08-07T09:33:41.347Z,0.13
2022-08-07T09:36:14.502Z,0.40
2022-08-07T09:38:40.901Z,0.13
2022-08-07T09:41:22.420Z,0.25
2022-08-07T09:44:19.164Z,0.13
2022-08-07T09:47:42.383Z,0.10
2022-08-07T09:50:18.978Z,0.20
2022-08-07T09:52:48.617Z,0.13
2022-08-07T09:56:02.634Z,0.20
2022-08-07T09:58:26.221Z,0.10
2022-08-07T10:01:08.265Z,0.10
2022-08-07T10:04:06.677Z,0.10
2022-08-07T10:06:48.906Z,0.10
2022-08-07T10:09:34.364Z,0.20
2022-08-07T10:12:18.135Z,0.30
2022-08-07T10:15:15.299Z,0.10
2022-08-07T10:18:03.882Z,0.10
2022-08-07T10:20:45.312Z,0.20
2022-08-07T10:24:05.723Z,0.13
2022-08-07T10:26:27.868Z,0.10
2022-08-07T10:28:54.102Z,0.10
2022-08-07T10:31:38.591Z,0.20
2022-08-07T10:34:15.262Z,0.10
2022-08-07T10:36:51.967Z,0.20
2022-08-07T10:39:22.189Z,0.20
2022-08-07T10:42:00.248Z,0.20
2022-08-07T10:44:39.031Z,0.20
2022-08-07T10:47:11.522Z,0.20
2022-08-07T10:49:49.426Z,0.50
2022-08-07T10:52:35.028Z,0.20
2022-08-07T10:55:26.714Z,0.10
2022-08-07T10:58:04.575Z,0.20
2022-08-07T11:00:43.083Z,0.15
2022-08-07T11:03:52.480Z,0.15
2022-08-07T11:06:26.907Z,0.20
2022-08-07T11:11:27.368Z,0.20
2022-08-07T11:14:44.398Z,0.20
2022-08-07T11:17:23.572Z,0.28
2022-08-07T11:20:09.763Z,0.10
2022-08-07T11:22:45.636Z,0.10
2022-08-07T11:25:31.382Z,0.20
2022-08-07T11:28:21.322Z,0.10
2022-08-07T11:30:53.577Z,0.20
2022-08-07T11:33:54.182Z,0.25
2022-08-07T11:36:30.940Z,0.10
2022-08-07T11:39:07.002Z,0.10
2022-08-07T11:42:02.114Z,0.20
2022-08-07T11:44:29.732Z,0.15
2022-08-07T11:47:17.621Z,0.10
2022-08-07T11:50:30.360Z,0.15
2022-08-07T11:53:05.237Z,0.10
2022-08-07T11:56:09.254Z,0.10
2022-08-07T11:58:40.873Z,0.20
2022-08-07T12:01:22.584Z,0.20
2022-08-07T12:04:08.018Z,0.10
2022-08-07T12:06:51.511Z,0.20
2022-08-07T12:09:32.800Z,0.10
2022-08-07T12:12:10.882Z,0.20
2022-08-07T12:15:01.366Z,0.20
2022-08-07T12:17:33.871Z,0.10
2022-08-07T12:20:08.835Z,0.10
2022-08-07T12:22:59.094Z,0.10
2022-08-07T12:26:21.471Z,0.10
2022-08-07T12:28:44.897Z,0.10
2022-08-07T12:31:17.258Z,0.20
2022-08-07T12:33:56.073Z,0.20
2022-08-07T12:36:33.558Z,0.20
2022-08-07T12:39:02.211Z,0.13
2022-08-07T12:41:42.743Z,0.20
2022-08-07T12:44:18.495Z,0.10
2022-08-07T12:47:08.712Z,0.13
2022-08-07T12:49:51.579Z,0.13
2022-08-07T12:52:34.370Z,0.17
2022-08-07T12:55:05.373Z,0.17
2022-08-07T12:58:01.086Z,0.10
2022-08-07T13:00:31.243Z,0.10
2022-08-07T13:03:55.024Z,0.10
2022-08-07T13:07:00.265Z,0.17
2022-08-07T13:10:19.283Z,0.17
2022-08-07T13:12:50.763Z,0.10
2022-08-07T13:15:35.803Z,0.10
2022-08-07T13:18:02.369Z,0.20
2022-08-07T13:20:41.243Z,0.20
2022-08-07T13:24:01.927Z,0.32
2022-08-07T13:26:07.325Z,0.10
2022-08-07T13:28:46.421Z,0.20
2022-08-07T13:31:18.915Z,0.13
2022-08-07T13:34:30.241Z,0.20
2022-08-07T13:37:02.685Z,0.10
2022-08-07T13:40:32.609Z,0.20
2022-08-07T13:42:37.512Z,0.20
2022-08-07T13:46:06.527Z,0.13
2022-08-07T13:48:08.473Z,0.10
2022-08-07T13:50:44.781Z,0.10
2022-08-07T13:53:35.939Z,0.10
2022-08-07T13:56:17.866Z,0.20
2022-08-07T13:59:05.510Z,0.20
2022-08-07T14:01:33.425Z,0.10
2022-08-07T14:04:21.475Z,0.20
2022-08-07T14:06:50.340Z,0.10
2022-08-07T14:10:02.135Z,0.10
2022-08-07T14:12:10.294Z,0.22
2022-08-07T14:14:44.908Z,0.20
2022-08-07T14:17:13.154Z,0.20
2022-08-07T14:20:43.297Z,0.25
2022-08-07T14:23:15.131Z,0.30
2022-08-07T14:25:59.362Z,0.30
2022-08-07T14:28:33.231Z,0.10
2022-08-07T14:31:13.440Z,0.20
2022-08-07T14:33:44.162Z,0.17
2022-08-07T14:36:12.932Z,0.20
2022-08-07T14:38:42.664Z,0.25
2022-08-07T14:41:33.616Z,0.20
2022-08-07T14:44:09.966Z,0.20
2022-08-07T14:46:52.064Z,0.22
2022-08-07T14:49:58.042Z,0.20
2022-08-07T14:52:16.915Z,0.20
2022-08-07T14:54:43.462Z,0.10
2022-08-07T14:57:11.267Z,0.20
2022-08-07T15:00:05.568Z,0.20
2022-08-07T15:02:34.537Z,0.10
2022-08-07T15:05:02.558Z,0.20
2022-08-07T15:07:47.382Z,0.10
2022-08-07T15:10:19.836Z,0.20
2022-08-07T15:15:41.994Z,0.10
2022-08-07T15:18:14.428Z,0.10
2022-08-07T15:21:03.735Z,0.17
2022-08-07T15:25:15.837Z,0.20
2022-08-07T15:26:31.901Z,0.15
2022-08-07T15:30:10.283Z,0.20
2022-08-07T15:31:58.115Z,0.20
2022-08-07T15:34:28.190Z,0.17
2022-08-07T15:37:06.882Z,0.30
2022-08-07T15:42:44.482Z,0.30
2022-08-07T15:45:19.308Z,0.20
2022-08-07T15:48:01.074Z,0.28
2022-08-07T15:53:51.863Z,0.20
2022-08-07T15:56:18.924Z,0.20
2022-08-07T15:58:58.749Z,0.20
2022-08-07T16:01:38.582Z,0.10
2022-08-07T16:04:07.868Z,0.17
2022-08-07T16:06:54.542Z,0.20
2022-08-07T16:09:42.146Z,0.10
2022-08-07T16:12:12.182Z,0.20
2022-08-07T16:14:41.775Z,0.20
2022-08-07T16:18:02.337Z,0.20
2022-08-07T16:20:34.302Z,0.10
2022-08-07T16:23:53.098Z,0.20
2022-08-07T16:26:16.643Z,0.20
2022-08-07T16:30:08.571Z,0.20
2022-08-07T16:31:57.684Z,0.28
2022-08-07T16:34:33.822Z,0.30
2022-08-07T16:38:07.356Z,0.20
2022-08-07T16:40:28.210Z,0.10
2022-08-07T16:43:03.887Z,0.22
2022-08-07T16:46:47.064Z,0.20
2022-08-07T16:48:29.972Z,0.20
2022-08-07T16:51:21.849Z,0.20
2022-08-07T16:54:08.977Z,0.22
2022-08-07T16:56:54.418Z,0.30
2022-08-07T16:59:46.992Z,0.20
2022-08-07T17:02:13.710Z,0.20
2022-08-07T17:06:19.572Z,0.20
2022-08-07T17:08:09.160Z,0.10
2022-08-07T17:10:38.773Z,0.20
2022-08-07T17:13:23.660Z,0.20
2022-08-07T17:15:55.992Z,0.25
2022-08-07T17:18:44.572Z,0.17
2022-08-07T17:21:22.794Z,0.22
2022-08-07T17:23:49.287Z,0.20
2022-08-07T17:26:30.652Z,0.20
2022-08-07T17:29:08.310Z,0.28
2022-08-07T17:31:44.369Z,0.20
2022-08-07T17:34:34.842Z,0.20
2022-08-07T17:38:05.803Z,0.17
2022-08-07T17:40:08.937Z,0.40
2022-08-07T17:42:58.592Z,0.20
2022-08-07T17:45:43.832Z,0.20
2022-08-07T17:48:16.076Z,0.20
2022-08-07T17:51:08.045Z,0.20
2022-08-07T17:54:00.711Z,0.10
2022-08-07T17:56:32.018Z,0.10
2022-08-07T17:59:00.923Z,0.20
2022-08-07T18:01:39.219Z,0.17
2022-08-07T18:04:31.151Z,0.20
2022-08-07T18:07:20.775Z,0.10
2022-08-07T18:10:07.194Z,0.20
2022-08-07T18:12:42.023Z,0.30
2022-08-07T18:15:11.203Z,0.57
2022-08-07T18:18:44.694Z,0.20
2022-08-07T18:21:10.477Z,0.10
2022-08-07T18:23:43.321Z,0.25
2022-08-07T18:26:15.179Z,0.20
2022-08-07T18:28:58.743Z,0.10
2022-08-07T18:31:49.917Z,0.30
2022-08-07T18:34:40.952Z,0.50
2022-08-07T18:38:56.460Z,0.15
2022-08-07T18:40:42.926Z,0.13
2022-08-07T18:46:25.421Z,0.20
2022-08-07T18:50:31.092Z,0.20
2022-08-07T18:52:33.854Z,0.20
2022-08-07T18:54:36.901Z,0.17
2022-08-07T18:57:30.813Z,0.10
2022-08-07T19:00:32.643Z,0.10
2022-08-07T19:03:01.167Z,0.30
2022-08-07T19:06:02.372Z,0.20
2022-08-07T19:08:56.151Z,0.13
2022-08-07T19:11:35.764Z,0.28
2022-08-07T19:14:29.861Z,0.10
2022-08-07T19:17:05.809Z,0.20
2022-08-07T19:20:02.037Z,0.13
2022-08-07T19:22:46.809Z,0.20
2022-08-07T19:26:22.608Z,0.10
2022-08-07T19:28:29.855Z,0.20
2022-08-07T19:31:04.381Z,0.15
2022-08-07T19:33:38.815Z,0.20
2022-08-07T19:38:41.515Z,0.13
2022-08-07T19:41:45.058Z,0.17
2022-08-07T19:44:21.426Z,0.25
2022-08-07T19:46:55.607Z,0.17
2022-08-07T19:49:58.579Z,0.20
2022-08-07T19:52:18.072Z,0.10
2022-08-07T19:54:55.561Z,0.13
2022-08-07T19:58:02.615Z,0.13
2022-08-07T20:00:28.237Z,0.10
2022-08-07T20:03:00.222Z,0.20
2022-08-07T20:05:31.736Z,0.13
2022-08-07T20:08:20.990Z,0.10
2022-08-07T20:10:54.353Z,0.10
2022-08-07T20:13:32.258Z,0.25
2022-08-07T20:16:00.507Z,0.25
2022-08-07T20:18:32.780Z,0.10
2022-08-07T20:21:02.073Z,0.10
2022-08-07T20:23:43.334Z,0.10
2022-08-07T20:26:29.566Z,0.10
2022-08-07T20:29:00.429Z,0.10
2022-08-07T20:31:37.103Z,0.30
2022-08-07T20:34:05.867Z,0.15
2022-08-07T20:36:33.467Z,0.10
2022-08-07T20:39:11.697Z,0.30
2022-08-07T20:41:54.067Z,0.20
2022-08-07T20:44:26.670Z,0.20
2022-08-07T20:47:04.280Z,0.25
2022-08-07T20:49:59.192Z,0.22
2022-08-07T20:52:24.603Z,0.20
2022-08-07T20:55:08.496Z,0.10
2022-08-07T20:57:47.587Z,0.10
2022-08-07T21:00:42.821Z,0.15
2022-08-07T21:05:54.464Z,0.22
2022-08-07T21:08:36.511Z,0.38
2022-08-07T21:11:10.514Z,0.28
2022-08-07T21:13:56.934Z,0.20
2022-08-07T21:16:25.995Z,0.20
2022-08-07T21:18:56.994Z,0.28
2022-08-07T21:21:27.732Z,0.00
2022-08-07T21:24:10.469Z,0.10
2022-08-07T21:26:55.022Z,0.20
2022-08-07T21:29:23.102Z,0.00
2022-08-07T21:32:47.504Z,0.20
2022-08-07T21:35:11.572Z,0.00
2022-08-07T21:37:57.938Z,0.30
2022-08-07T21:40:26.828Z,0.20
2022-08-07T21:43:03.471Z,0.10
2022-08-07T21:46:08.814Z,0.10
2022-08-07T21:48:28.681Z,0.10
2022-08-07T21:51:19.932Z,0.10
2022-08-07T21:53:53.539Z,0.10
2022-08-07T21:56:39.584Z,0.10
2022-08-07T21:59:21.347Z,0.10
2022-08-07T22:02:10.281Z,0.20
2022-08-07T22:04:53.601Z,0.15
2022-08-07T22:07:22.986Z,0.00
2022-08-07T22:10:04.543Z,0.05
2022-08-07T22:12:36.035Z,0.13
2022-08-07T22:16:44.188Z,0.00
2022-08-07T22:18:10.905Z,0.10
2022-08-07T22:20:49.562Z,0.10
2022-08-07T22:23:28.151Z,0.20
2022-08-07T22:26:11.642Z,0.20
2022-08-07T22:28:53.016Z,0.20
2022-08-07T22:31:45.193Z,0.00
2022-08-07T22:34:29.080Z,0.10
2022-08-07T22:37:01.531Z,0.20
2022-08-07T22:39:35.345Z,0.10
2022-08-07T22:42:25.999Z,0.10
2022-08-07T22:45:10.933Z,0.00
2022-08-07T22:48:03.172Z,0.10
2022-08-07T22:50:48.339Z,0.00
2022-08-07T22:53:15.461Z,0.10
2022-08-07T22:55:47.939Z,0.10
2022-08-07T23:00:46.820Z,0.00
2022-08-07T23:03:23.963Z,0.03
2022-08-07T23:06:09.165Z,0.13
2022-08-07T23:10:00.640Z,0.20
2022-08-07T23:12:03.194Z,0.10
2022-08-07T23:14:30.454Z,0.00
2022-08-07T23:17:15.930Z,0.20
2022-08-07T23:20:40.746Z,0.00
2022-08-07T23:23:11.768Z,0.00
2022-08-07T23:25:47.599Z,0.10
2022-08-07T23:28:28.634Z,0.10
2022-08-07T23:31:06.863Z,0.00
2022-08-07T23:37:17.892Z,0.17
2022-08-07T23:39:47.048Z,0.25
2022-08-07T23:42:42.048Z,0.05
2022-08-07T23:45:32.796Z,0.10
2022-08-07T23:48:08.517Z,0.10
2022-08-07T23:50:38.154Z,0.17
2022-08-07T23:53:23.575Z,0.15
2022-08-07T23:56:27.082Z,0.13
2022-08-07T23:58:59.608Z,0.10
